Airfield :
LOGIN :

Register | Disclaimer

   EN    FR    IT 

 










Legend :    VFR   Marginal VFR   IFR   Intensive IFR   Very Intensive IFR
Visi :
Ceiling :
>= 8 km
>= 3000ft
5 to 8 km
1000 to 3000 ft
1500m to 5 km
500 to 1000 ft
800 to 1500m
200 to 500 ft
< 800m
< 200 ft
Symbols :   Thunderstorms  Fog  Heavy snow  Heavy precipitations  Wind > 20 kt
SIGMETs :     Misc.  Thunderstorms  Icing  Turbulence  Mountain Waves  Volcanic Ashes






- Airport Elevation : 83 ft
- IATA code : LHR


EGLL - London Heathrow

CURRENT METAR :
  • 232050Z AUTO 09004KT 7000 OVC011 13/12 Q1007 NOSIG

EXPIRED METARs :
  • 232020Z AUTO 06004KT 030V090 7000 -RA BKN012 13/12 Q1007
  • 231950Z AUTO VRB02KT 8000 OVC011 13/11 Q1008 BECMG BKN007
  • 231920Z AUTO 07003KT 9000 BKN013 13/11 Q1008 BECMG BKN008
  • 231850Z AUTO VRB02KT 9000 -RA BKN014 13/11 Q1008 TEMPO SCT014
  • 231820Z AUTO 05004KT 9999 NCD 13/11 Q1008

TAF TAF EGLL
Valid from the 23 at 18:00 until the 25 at 00:00 UTC


231657Z 2318/2424 08005KT 9999 SCT040
PROB40
TEMPO 2318/2320 8000 -RA BKN007
BECMG 2320/2323 4000 BR BKN006
TEMPO 2322/2409 BKN003
PROB30
TEMPO 2400/2408 1200 BKN001
BECMG 2409/2411 9999 NSW SCT015
TEMPO 2410/2417 4000 RA BKN008
PROB40
TEMPO 2410/2414 +RA
BECMG 2415/2418 24010KT



MET'MAP, your aeronautical weather chart ! - Copyright ORBIFLY December 2007 - Disclaimer

ORBIFLY MET'MAP TEAM :

Programming & Development : Alexandra Zaïnal
Concept & Development : Baudouin d'Aumeries
Co-Development & Prog : Marc-Olivier Méhu
Technical & hardware support : Manuel Goepfert

Contact : metmap@orbifly.com




SOURCES & CREDITS :

   NOAA